Time;durP1;ratioP1;P1;durP2;ratioP2;P2;SDS_P1;SDS_P2;PMS_P1;PMS_P2;Temp;Humidity;BMP_temperature;BMP_pressure;BME280_temperature;BME280_humidity;BME280_pressure;Samples;Min_cycle;Max_cycle;Signal;HPM_P1;HPM_P2
2021/12/29 00:00:17;;;;;;;6.70;1.48;;;;;;;5.48;100.00;94227.66;5111198;28;20405;-79
2021/12/29 00:03:03;;;;;;;8.85;1.98;;;;;;;5.38;100.00;94226.63;5113214;27;20067;-79
2021/12/29 00:05:29;;;;;;;11.38;1.63;;;;;;;5.53;100.00;94217.19;5084125;28;20072;-79
2021/12/29 00:07:55;;;;;;;7.20;1.52;;;;;;;5.45;100.00;94233.41;5099929;28;20043;-78
2021/12/29 00:10:21;;;;;;;13.20;2.58;;;;;;;5.50;100.00;94228.94;5099853;28;20039;-79
2021/12/29 00:12:51;;;;;;;8.57;1.60;;;;;;;5.52;100.00;94228.69;5124932;27;20041;-79
2021/12/29 00:15:17;;;;;;;11.45;1.60;;;;;;;5.61;100.00;94229.66;5115282;27;20174;-79
2021/12/29 00:17:45;;;;;;;8.68;1.70;;;;;;;5.50;100.00;94225.53;5100987;28;20044;-79
2021/12/29 00:20:14;;;;;;;13.95;1.83;;;;;;;5.56;100.00;94237.53;5094331;27;20092;-79
2021/12/29 00:22:40;;;;;;;5.75;1.60;;;;;;;5.61;100.00;94240.09;5127908;27;20047;-79
2021/12/29 00:25:08;;;;;;;9.38;1.60;;;;;;;5.64;100.00;94244.78;5093316;27;20681;-79
2021/12/29 00:27:34;;;;;;;12.18;2.17;;;;;;;5.69;100.00;94242.16;5107283;28;20044;-78
2021/12/29 00:30:00;;;;;;;14.80;1.92;;;;;;;5.76;100.00;94230.63;5096238;28;20040;-79
2021/12/29 00:32:27;;;;;;;10.02;2.13;;;;;;;5.75;100.00;94236.91;5120863;27;20078;-79
2021/12/29 00:34:53;;;;;;;11.73;2.05;;;;;;;5.62;100.00;94240.91;5094901;28;20048;-79
2021/12/29 00:37:19;;;;;;;17.55;2.30;;;;;;;5.62;100.00;94241.69;5098909;28;20062;-79
2021/12/29 00:39:44;;;;;;;13.60;2.00;;;;;;;5.81;100.00;94233.22;5094211;28;20074;-79
2021/12/29 00:42:10;;;;;;;10.98;2.22;;;;;;;5.75;100.00;94231.69;5093679;28;20401;-79
2021/12/29 00:44:36;;;;;;;12.35;2.30;;;;;;;5.76;100.00;94235.84;5107747;27;20036;-79
2021/12/29 00:47:02;;;;;;;10.60;1.92;;;;;;;5.84;100.00;94243.13;5091063;28;20505;-78
2021/12/29 00:49:32;;;;;;;15.77;2.35;;;;;;;5.79;100.00;94237.94;5104510;28;20055;-79
2021/12/29 00:51:59;;;;;;;10.73;1.58;;;;;;;5.78;100.00;94239.00;5124328;27;20508;-78
2021/12/29 00:54:25;;;;;;;9.90;2.08;;;;;;;5.84;100.00;94248.34;5102088;28;20119;-79
2021/12/29 00:56:51;;;;;;;9.07;2.10;;;;;;;5.82;100.00;94248.63;5121768;27;20095;-79
2021/12/29 00:59:19;;;;;;;8.88;1.48;;;;;;;5.89;100.00;94240.50;5112218;28;20048;-79
2021/12/29 01:01:48;;;;;;;6.35;1.20;;;;;;;5.85;100.00;94249.91;5111996;28;20035;-79
2021/12/29 01:04:14;;;;;;;14.80;2.42;;;;;;;5.86;100.00;94252.25;5113099;28;20562;-78
2021/12/29 01:06:40;;;;;;;8.43;1.77;;;;;;;5.85;100.00;94261.13;5125972;28;20043;-79
2021/12/29 01:09:05;;;;;;;7.35;1.92;;;;;;;5.89;100.00;94256.16;5111778;28;20055;-78
2021/12/29 01:11:31;;;;;;;8.48;1.73;;;;;;;5.85;100.00;94260.38;5114320;28;20051;-78
2021/12/29 01:13:56;;;;;;;12.20;2.00;;;;;;;5.84;100.00;94266.63;5111408;28;20775;-78
2021/12/29 01:18:57;;;;;;;8.57;1.80;;;;;;;5.98;99.35;94265.00;5107177;28;20047;-79
2021/12/29 01:21:23;;;;;;;7.15;1.40;;;;;;;5.93;100.00;94283.28;5112715;28;20051;-79
2021/12/29 01:23:48;;;;;;;9.85;2.03;;;;;;;5.95;99.13;94283.81;5098542;28;20036;-79
2021/12/29 01:26:14;;;;;;;8.77;1.50;;;;;;;5.98;99.38;94280.69;5105218;28;20047;-79
2021/12/29 01:28:39;;;;;;;14.07;2.13;;;;;;;5.99;99.52;94282.25;5095960;28;20136;-79
2021/12/29 01:31:05;;;;;;;6.50;1.58;;;;;;;6.04;98.14;94295.25;5110274;28;20054;-79
2021/12/29 01:33:30;;;;;;;7.78;1.73;;;;;;;5.89;99.66;94295.34;5114810;28;20065;-79
2021/12/29 01:35:56;;;;;;;5.05;1.23;;;;;;;6.09;96.85;94311.94;5098312;28;20043;-79
2021/12/29 01:38:21;;;;;;;7.25;1.67;;;;;;;6.10;97.87;94298.63;5098883;28;20066;-79
2021/12/29 01:40:49;;;;;;;6.90;1.40;;;;;;;6.11;98.58;94304.66;5109570;28;20039;-79
2021/12/29 01:43:16;;;;;;;16.90;1.80;;;;;;;6.16;96.66;94302.00;5110433;28;20385;-79
2021/12/29 01:45:42;;;;;;;8.68;1.80;;;;;;;6.12;96.18;94300.97;5100064;28;20091;-79
2021/12/29 01:48:07;;;;;;;10.80;1.90;;;;;;;6.15;95.47;94290.78;5110942;28;20059;-78
2021/12/29 01:50:35;;;;;;;5.70;1.60;;;;;;;6.16;96.43;94302.00;5119440;27;20040;-79
2021/12/29 01:53:08;;;;;;;6.72;1.77;;;;;;;6.23;95.11;94305.09;5104208;27;20100;-79
2021/12/29 01:55:34;;;;;;;6.38;1.60;;;;;;;6.18;95.15;94318.19;5089159;28;20055;-79
2021/12/29 01:58:00;;;;;;;7.72;1.40;;;;;;;6.20;95.05;94308.25;5102773;28;20051;-79
2021/12/29 02:00:29;;;;;;;8.95;1.92;;;;;;;6.35;93.89;94300.31;5092019;28;20028;-79
2021/12/29 02:02:55;;;;;;;7.53;1.23;;;;;;;6.27;92.96;94319.16;5112247;28;20446;-79
2021/12/29 02:05:21;;;;;;;7.40;1.90;;;;;;;6.27;94.06;94300.88;5100758;27;20044;-79
2021/12/29 02:07:46;;;;;;;6.38;1.38;;;;;;;6.29;94.41;94301.38;5106859;28;20036;-79
2021/12/29 02:10:15;;;;;;;9.13;1.42;;;;;;;6.36;93.45;94301.84;5113964;28;20498;-78
2021/12/29 02:12:41;;;;;;;4.82;1.10;;;;;;;6.38;93.44;94314.66;5099547;28;20039;-79
2021/12/29 02:15:09;;;;;;;14.50;2.58;;;;;;;6.20;95.25;94308.25;5101996;28;20399;-79
2021/12/29 02:17:35;;;;;;;7.57;1.58;;;;;;;6.37;94.00;94324.31;5123624;27;20108;-79
2021/12/29 02:20:04;;;;;;;8.65;1.42;;;;;;;6.38;91.78;94315.44;5091548;28;20036;-79
2021/12/29 02:22:52;;;;;;;6.35;1.88;;;;;;;6.38;92.79;94325.13;5111821;28;20412;-79
2021/12/29 02:27:49;;;;;;;6.22;1.60;;;;;;;6.47;92.17;94317.47;5117663;27;20394;-79
2021/12/29 02:30:16;;;;;;;8.13;1.42;;;;;;;6.41;92.36;94325.34;5106115;27;20095;-80
2021/12/29 02:32:42;;;;;;;12.15;2.28;;;;;;;6.43;92.43;94332.13;5128281;27;20840;-79
2021/12/29 02:35:09;;;;;;;10.35;1.63;;;;;;;6.47;91.63;94338.38;5108265;27;20039;-79
2021/12/29 02:37:35;;;;;;;13.75;1.95;;;;;;;6.39;92.50;94343.13;5109543;27;20040;-79
2021/12/29 02:40:01;;;;;;;11.43;2.03;;;;;;;6.34;94.25;94353.63;5095796;28;20044;-79
2021/12/29 02:42:29;;;;;;;9.60;2.03;;;;;;;6.31;93.31;94356.78;5108815;28;20860;-79
2021/12/29 02:44:57;;;;;;;4.95;1.40;;;;;;;6.46;92.45;94368.94;5104149;28;20055;-78
2021/12/29 02:47:22;;;;;;;6.15;1.40;;;;;;;6.38;93.35;94367.69;5105641;28;20044;-79
2021/12/29 02:49:48;;;;;;;14.07;1.48;;;;;;;6.31;94.19;94369.84;5117844;27;20060;-79
2021/12/29 02:52:19;;;;;;;7.63;1.52;;;;;;;6.35;95.05;94381.31;5106492;28;20504;-79
2021/12/29 02:54:44;;;;;;;5.40;1.80;;;;;;;6.31;94.16;94390.75;5116832;27;20039;-79
2021/12/29 02:57:10;;;;;;;10.25;1.65;;;;;;;6.18;96.82;94386.09;5122305;27;20050;-79
2021/12/29 02:59:36;;;;;;;12.85;1.88;;;;;;;6.27;97.41;94387.09;5105686;28;20131;-79
2021/12/29 03:02:02;;;;;;;8.20;1.42;;;;;;;6.25;97.76;94402.28;5097380;27;20042;-79
2021/12/29 03:04:27;;;;;;;12.07;1.90;;;;;;;6.21;98.22;94393.41;5102419;27;20338;-78
2021/12/29 03:06:52;;;;;;;13.27;1.42;;;;;;;6.31;97.74;94397.81;5101588;28;20047;-79
2021/12/29 03:09:19;;;;;;;9.32;1.48;;;;;;;6.20;98.57;94397.06;5121374;27;20498;-79
2021/12/29 03:11:46;;;;;;;6.40;1.58;;;;;;;6.19;98.48;94416.38;5119952;27;20043;-79
2021/12/29 03:14:12;;;;;;;12.10;1.98;;;;;;;6.02;100.00;94409.69;5095801;28;20562;-79
2021/12/29 03:16:38;;;;;;;17.80;1.90;;;;;;;6.07;100.00;94414.09;5097353;28;20097;-79
2021/12/29 03:19:05;;;;;;;7.93;1.38;;;;;;;6.15;100.00;94416.16;5102298;28;20044;-79
2021/12/29 03:21:32;;;;;;;11.05;1.73;;;;;;;6.03;100.00;94419.09;5096961;28;20043;-79
2021/12/29 03:23:58;;;;;;;11.68;1.60;;;;;;;6.02;100.00;94409.69;5111990;27;20047;-79
2021/12/29 03:26:24;;;;;;;7.88;1.40;;;;;;;6.17;99.11;94421.09;5122342;27;20042;-78
2021/12/29 03:28:51;;;;;;;7.22;1.20;;;;;;;6.11;99.58;94427.41;5095183;28;20118;-79
2021/12/29 03:31:18;;;;;;;9.35;2.08;;;;;;;6.15;99.48;94431.03;5098112;28;20042;-78
2021/12/29 03:33:45;;;;;;;6.05;1.63;;;;;;;6.10;98.13;94439.66;5106439;28;20040;-78
2021/12/29 03:36:12;;;;;;;9.00;1.50;;;;;;;6.19;99.52;94445.13;5110366;27;20053;-77
2021/12/29 03:38:40;;;;;;;9.05;1.73;;;;;;;6.20;98.30;94436.25;5103438;27;20048;-78
2021/12/29 03:41:11;;;;;;;5.00;1.40;;;;;;;6.14;99.22;94439.94;5096056;28;20048;-78
2021/12/29 03:43:38;;;;;;;7.50;1.60;;;;;;;6.04;98.85;94438.91;5099887;28;20095;-78
2021/12/29 03:46:05;;;;;;;9.35;1.33;;;;;;;6.04;100.00;94451.97;5108047;27;20488;-77
2021/12/29 03:48:31;;;;;;;10.70;1.50;;;;;;;6.05;100.00;94458.00;5111942;27;20043;-78
2021/12/29 03:50:58;;;;;;;4.43;1.23;;;;;;;6.20;100.00;94475.44;5120774;27;20043;-78
2021/12/29 03:53:24;;;;;;;6.38;1.42;;;;;;;6.21;98.49;94479.63;5107721;28;20044;-78
2021/12/29 03:55:50;;;;;;;5.85;1.33;;;;;;;6.22;96.94;94478.53;5082805;28;20451;-78
2021/12/29 03:58:20;;;;;;;4.93;1.20;;;;;;;6.26;98.42;94490.03;5102336;28;20097;-77
2021/12/29 04:00:47;;;;;;;7.40;1.13;;;;;;;6.15;98.73;94478.06;5114534;27;20416;-78
2021/12/29 04:03:13;;;;;;;6.00;1.48;;;;;;;6.17;100.00;94475.97;5106226;27;20518;-76
2021/12/29 04:05:39;;;;;;;4.50;1.30;;;;;;;6.10;100.00;94478.09;5105020;28;20040;-76
2021/12/29 04:08:05;;;;;;;6.10;1.20;;;;;;;6.11;99.14;94477.03;5097300;28;20046;-78
2021/12/29 04:10:31;;;;;;;6.95;1.20;;;;;;;6.18;98.64;94477.53;5102937;27;20048;-77
2021/12/29 04:12:58;;;;;;;10.32;1.88;;;;;;;6.10;100.00;94480.69;5106213;28;20040;-78
2021/12/29 04:15:27;;;;;;;5.35;1.63;;;;;;;6.15;99.77;94483.28;5111826;27;20047;-78
2021/12/29 04:17:58;;;;;;;8.85;1.45;;;;;;;5.98;100.00;94494.81;5094734;28;20098;-77
2021/12/29 04:23:14;;;;;;;6.82;1.25;;;;;;;6.04;99.89;94509.44;5116763;27;20110;-77
2021/12/29 04:25:41;;;;;;;4.85;1.08;;;;;;;6.13;99.02;94512.28;5096999;28;20036;-77
2021/12/29 04:28:13;;;;;;;6.38;2.10;;;;;;;6.15;100.00;94504.16;5112172;28;20325;-77
2021/12/29 04:30:38;;;;;;;7.78;1.60;;;;;;;6.11;100.00;94508.38;5090798;27;20040;-78
2021/12/29 04:33:04;;;;;;;8.40;1.38;;;;;;;6.00;100.00;94524.06;5106709;27;20051;-78
2021/12/29 04:35:30;;;;;;;7.18;1.23;;;;;;;6.02;100.00;94521.97;5118757;27;20040;-78
2021/12/29 04:37:55;;;;;;;9.80;1.33;;;;;;;5.98;100.00;94536.59;5102144;27;20097;-77
2021/12/29 04:40:22;;;;;;;10.00;1.40;;;;;;;5.97;100.00;94534.22;5099129;28;20043;-76
2021/12/29 04:42:48;;;;;;;10.27;1.25;;;;;;;5.98;100.00;94547.06;5097099;28;20048;-77
2021/12/29 04:45:14;;;;;;;8.02;1.40;;;;;;;5.81;100.00;94547.31;5106842;27;20047;-77
2021/12/29 04:47:42;;;;;;;5.53;1.00;;;;;;;5.96;100.00;94564.00;5097801;28;20420;-78
2021/12/29 04:50:24;;;;;;;7.63;1.63;;;;;;;5.81;100.00;94552.53;5107489;28;20112;-77
2021/12/29 04:52:54;;;;;;;5.47;1.33;;;;;;;5.77;100.00;94561.16;5092586;28;20043;-77
2021/12/29 04:55:20;;;;;;;10.13;1.77;;;;;;;5.69;100.00;94550.19;5097067;28;20432;-78
2021/12/29 04:57:46;;;;;;;6.22;1.13;;;;;;;5.79;100.00;94551.22;5103372;28;20036;-78
2021/12/29 05:00:13;;;;;;;6.88;1.20;;;;;;;5.71;100.00;94553.31;5091856;28;20036;-77
2021/12/29 05:02:38;;;;;;;6.43;1.20;;;;;;;5.60;100.00;94562.16;5099412;28;20101;-78
2021/12/29 05:05:18;;;;;;;6.50;1.15;;;;;;;5.65;100.00;94564.78;5118716;28;20435;-78
2021/12/29 05:10:28;;;;;;;8.50;1.52;;;;;;;5.49;100.00;94571.06;5095354;28;20036;-77
2021/12/29 05:12:54;;;;;;;4.68;1.15;;;;;;;5.48;100.00;94580.69;5100297;28;20105;-77
2021/12/29 05:15:19;;;;;;;4.43;1.10;;;;;;;5.41;100.00;94566.34;5093472;28;20043;-77
2021/12/29 05:17:45;;;;;;;7.15;1.40;;;;;;;5.59;100.00;94580.72;5086112;28;20417;-78
2021/12/29 05:20:11;;;;;;;8.30;1.48;;;;;;;5.54;100.00;94584.09;5091152;28;20036;-78
2021/12/29 05:22:36;;;;;;;8.15;1.40;;;;;;;5.43;100.00;94582.53;5115490;27;20093;-77
2021/12/29 05:25:03;;;;;;;7.53;1.33;;;;;;;5.55;100.00;94580.47;5120821;27;20150;-77
2021/12/29 05:27:28;;;;;;;7.78;1.25;;;;;;;5.46;100.00;94587.22;5106225;27;20039;-77
2021/12/29 05:29:54;;;;;;;4.28;1.50;;;;;;;5.55;100.00;94590.91;5102905;27;20104;-78
2021/12/29 05:32:19;;;;;;;5.97;1.48;;;;;;;5.69;100.00;94589.34;5106152;27;20429;-78
2021/12/29 05:34:45;;;;;;;8.63;1.52;;;;;;;5.67;100.00;94588.03;5076741;28;20115;-76
2021/12/29 05:37:10;;;;;;;8.15;1.35;;;;;;;5.59;100.00;94602.38;5079380;28;20090;-77
2021/12/29 05:39:36;;;;;;;12.13;1.83;;;;;;;5.62;100.00;94612.31;5080838;28;20060;-77
2021/12/29 05:42:02;;;;;;;9.43;1.85;;;;;;;5.58;100.00;94611.25;5093856;28;20521;-77
2021/12/29 05:44:27;;;;;;;8.35;1.50;;;;;;;5.50;100.00;94606.53;5103086;27;20040;-77
2021/12/29 05:46:53;;;;;;;4.97;1.52;;;;;;;5.57;100.00;94620.13;5112279;27;20040;-77
2021/12/29 05:49:19;;;;;;;7.22;1.52;;;;;;;5.59;100.00;94612.81;5118608;27;20051;-77
2021/12/29 05:51:44;;;;;;;6.10;1.52;;;;;;;5.64;100.00;94623.25;5093870;28;20040;-77
2021/12/29 05:54:10;;;;;;;7.25;1.65;;;;;;;5.56;100.00;94618.56;5099013;28;20044;-77
2021/12/29 05:56:37;;;;;;;9.00;1.65;;;;;;;5.62;100.00;94622.75;5093118;28;20036;-77
2021/12/29 05:59:03;;;;;;;2.85;1.25;;;;;;;5.58;100.00;94632.13;5093884;28;20040;-77
2021/12/29 06:01:31;;;;;;;4.72;1.33;;;;;;;5.63;100.00;94629.53;5093109;28;20543;-77
2021/12/29 06:03:57;;;;;;;7.60;1.25;;;;;;;5.53;100.00;94637.34;5115602;27;20043;-76
2021/12/29 06:06:23;;;;;;;6.72;1.40;;;;;;;5.51;100.00;94636.81;5118724;27;20039;-76
2021/12/29 06:08:48;;;;;;;5.55;1.40;;;;;;;5.52;100.00;94638.41;5096169;27;20055;-77
2021/12/29 06:11:14;;;;;;;4.80;1.05;;;;;;;5.78;100.00;94635.81;5098872;27;20050;-77
2021/12/29 06:13:39;;;;;;;4.15;1.20;;;;;;;5.70;100.00;94635.28;5093698;28;20044;-78
2021/12/29 06:16:05;;;;;;;7.07;1.38;;;;;;;5.72;100.00;94638.41;5112472;28;20035;-76
2021/12/29 06:18:30;;;;;;;5.90;1.75;;;;;;;5.60;100.00;94648.31;5097443;28;20127;-76
2021/12/29 06:20:56;;;;;;;9.95;1.80;;;;;;;5.65;100.00;94648.31;5109964;28;20425;-76
2021/12/29 06:23:21;;;;;;;10.30;1.50;;;;;;;5.71;100.00;94652.50;5094572;28;20143;-77
2021/12/29 06:25:48;;;;;;;8.20;1.30;;;;;;;5.86;100.00;94648.34;5098428;27;20047;-77
2021/12/29 06:28:13;;;;;;;7.80;1.20;;;;;;;5.83;100.00;94646.25;5098633;28;20043;-77
2021/12/29 06:30:39;;;;;;;9.40;1.42;;;;;;;5.82;100.00;94653.31;5098452;27;20047;-77
2021/12/29 06:33:05;;;;;;;4.72;1.00;;;;;;;5.92;100.00;94652.53;5098711;28;20768;-76
2021/12/29 06:35:30;;;;;;;5.25;1.17;;;;;;;5.86;100.00;94658.78;5096685;28;20053;-77
2021/12/29 06:37:56;;;;;;;3.47;0.88;;;;;;;5.89;100.00;94658.28;5093617;28;20078;-77
2021/12/29 06:40:21;;;;;;;3.00;0.82;;;;;;;5.95;100.00;94670.28;5104161;28;20507;-77
2021/12/29 06:42:47;;;;;;;8.95;1.30;;;;;;;5.88;100.00;94667.94;5076070;28;20058;-78
2021/12/29 06:45:13;;;;;;;8.60;1.15;;;;;;;5.75;100.00;94678.09;5083018;28;20050;-77
2021/12/29 06:47:39;;;;;;;4.28;1.38;;;;;;;5.67;100.00;94671.56;5118169;27;20097;-77
2021/12/29 06:50:06;;;;;;;6.13;1.23;;;;;;;5.76;100.00;94682.28;5108284;27;20484;-77
2021/12/29 06:52:32;;;;;;;5.18;1.00;;;;;;;5.75;100.00;94684.13;5107744;28;20040;-77
2021/12/29 06:54:57;;;;;;;3.85;1.25;;;;;;;5.84;100.00;94698.22;5091700;28;20047;-76
2021/12/29 06:57:23;;;;;;;4.20;0.98;;;;;;;5.80;100.00;94699.00;5093655;28;20047;-77
2021/12/29 06:59:49;;;;;;;6.15;1.10;;;;;;;5.88;100.00;94703.72;5094039;28;20063;-77
2021/12/29 07:02:14;;;;;;;8.75;1.52;;;;;;;5.81;100.00;94714.41;5100118;28;20042;-77
2021/12/29 07:04:41;;;;;;;8.02;1.25;;;;;;;5.80;100.00;94712.03;5111014;28;20043;-77
2021/12/29 07:07:06;;;;;;;5.53;1.40;;;;;;;5.77;100.00;94708.13;5108234;27;20067;-77
2021/12/29 07:09:32;;;;;;;5.97;1.55;;;;;;;5.77;100.00;94717.78;5111110;27;20057;-76
2021/12/29 07:11:58;;;;;;;2.25;0.85;;;;;;;5.73;100.00;94720.91;5111651;28;20047;-78
2021/12/29 07:14:23;;;;;;;9.77;1.40;;;;;;;5.79;100.00;94716.50;5102368;28;20593;-77
2021/12/29 07:16:49;;;;;;;4.72;1.48;;;;;;;5.87;100.00;94723.81;5097535;28;20036;-77
2021/12/29 07:19:17;;;;;;;9.30;1.55;;;;;;;5.85;100.00;94730.34;5117594;27;20043;-77
2021/12/29 07:21:43;;;;;;;6.03;1.17;;;;;;;5.90;100.00;94732.94;5079517;28;20032;-76
2021/12/29 07:24:10;;;;;;;5.18;1.10;;;;;;;5.78;100.00;94719.38;5091946;28;20051;-78
2021/12/29 07:26:36;;;;;;;6.00;1.55;;;;;;;5.93;100.00;94727.22;5107154;27;20059;-77
2021/12/29 07:29:03;;;;;;;4.07;1.17;;;;;;;5.84;100.00;94728.78;5107612;27;20047;-77
2021/12/29 07:31:29;;;;;;;3.75;1.00;;;;;;;5.92;100.00;94736.09;5095654;27;20040;-77
2021/12/29 07:33:55;;;;;;;8.90;1.13;;;;;;;5.93;100.00;94726.44;5099244;28;20055;-77
2021/12/29 07:36:20;;;;;;;4.70;1.23;;;;;;;5.95;100.00;94729.56;5101032;28;20032;-77
2021/12/29 07:38:46;;;;;;;5.95;1.17;;;;;;;5.97;100.00;94737.94;5099194;27;20118;-78
2021/12/29 07:41:13;;;;;;;3.15;1.02;;;;;;;6.02;100.00;94741.38;5110242;27;20051;-77
2021/12/29 07:43:39;;;;;;;3.75;1.13;;;;;;;6.03;100.00;94740.34;5096684;28;20036;-76
2021/12/29 07:46:06;;;;;;;4.25;1.33;;;;;;;6.13;100.00;94751.84;5090416;28;20047;-76
2021/12/29 07:48:32;;;;;;;6.15;1.33;;;;;;;6.04;100.00;94746.34;5090099;27;20042;-77
2021/12/29 07:50:59;;;;;;;3.00;1.00;;;;;;;6.07;100.00;94749.19;5103652;28;20052;-77
2021/12/29 07:53:26;;;;;;;5.57;1.20;;;;;;;6.00;100.00;94759.13;5079864;28;20105;-76
2021/12/29 07:55:52;;;;;;;2.08;0.88;;;;;;;6.07;100.00;94769.31;5100990;28;20047;-78
2021/12/29 07:58:18;;;;;;;6.28;1.40;;;;;;;6.12;99.65;94771.97;5091723;27;20071;-77
2021/12/29 08:00:44;;;;;;;5.32;1.30;;;;;;;6.16;100.00;94774.81;5109256;27;20036;-77
2021/12/29 08:03:12;;;;;;;4.47;0.98;;;;;;;6.17;99.38;94779.00;5110393;27;20070;-77
2021/12/29 08:05:39;;;;;;;3.40;1.20;;;;;;;6.12;99.94;94792.06;5086332;27;20044;-77
2021/12/29 08:08:06;;;;;;;6.25;1.25;;;;;;;6.22;98.65;94786.84;5105243;27;20585;-77
2021/12/29 08:10:35;;;;;;;2.58;1.10;;;;;;;6.22;99.63;94797.28;5103949;27;20040;-77
2021/12/29 08:13:04;;;;;;;5.97;1.42;;;;;;;6.28;100.00;94801.50;5107735;27;20028;-76
2021/12/29 08:15:32;;;;;;;6.97;1.38;;;;;;;6.30;98.30;94820.31;5099260;27;20451;-77
2021/12/29 08:17:58;;;;;;;7.68;1.48;;;;;;;6.27;99.76;94805.16;5101887;28;20043;-76
2021/12/29 08:20:24;;;;;;;4.25;1.17;;;;;;;6.41;97.73;94814.06;5110472;28;20096;-76
2021/12/29 08:22:49;;;;;;;4.90;1.75;;;;;;;6.32;98.14;94820.84;5110139;28;20050;-77
2021/12/29 08:25:15;;;;;;;4.35;1.13;;;;;;;6.31;97.60;94819.28;5090115;28;20107;-77
2021/12/29 08:27:41;;;;;;;4.57;0.90;;;;;;;6.44;97.57;94825.84;5091952;28;20043;-77
2021/12/29 08:30:07;;;;;;;3.35;0.75;;;;;;;6.46;97.51;94817.72;5096538;27;20134;-77
2021/12/29 08:32:33;;;;;;;2.35;1.13;;;;;;;6.45;100.00;94821.38;5091199;28;20036;-77
2021/12/29 08:34:58;;;;;;;4.20;1.38;;;;;;;6.56;96.63;94817.72;5099419;28;20680;-79
2021/12/29 08:37:24;;;;;;;4.78;1.10;;;;;;;6.59;96.95;94809.38;5092698;28;20123;-77
2021/12/29 08:39:49;;;;;;;4.43;1.05;;;;;;;6.66;95.07;94812.50;5096368;28;20036;-76
2021/12/29 08:42:15;;;;;;;2.85;0.88;;;;;;;6.64;96.08;94814.59;5104757;28;20040;-76
2021/12/29 08:44:41;;;;;;;4.50;1.05;;;;;;;6.61;95.22;94815.13;5089062;28;20497;-76
2021/12/29 08:47:08;;;;;;;4.55;1.30;;;;;;;6.68;95.60;94815.66;5089560;28;20412;-77
2021/12/29 08:49:34;;;;;;;6.70;1.55;;;;;;;6.61;96.57;94825.59;5103935;27;20043;-78
2021/12/29 08:52:00;;;;;;;2.75;1.20;;;;;;;6.82;94.77;94825.59;5076200;28;20059;-77
2021/12/29 08:54:26;;;;;;;4.47;1.20;;;;;;;6.66;94.69;94822.19;5073556;28;20519;-77
2021/12/29 08:56:54;;;;;;;3.58;1.20;;;;;;;6.82;93.81;94841.28;5104277;27;20036;-77
2021/12/29 08:59:21;;;;;;;2.15;1.10;;;;;;;6.83;93.24;94837.63;5109756;28;20042;-77
2021/12/29 09:01:47;;;;;;;2.78;1.00;;;;;;;6.83;94.80;94837.63;5074420;28;20035;-76
2021/12/29 09:04:12;;;;;;;4.22;1.17;;;;;;;6.81;93.58;94829.25;5100864;28;20771;-77
2021/12/29 09:06:38;;;;;;;4.20;1.20;;;;;;;6.81;94.38;94834.47;5088901;28;20533;-76
2021/12/29 09:09:04;;;;;;;4.53;1.13;;;;;;;6.83;95.48;94842.84;5102375;28;20044;-78
2021/12/29 09:11:30;;;;;;;4.75;0.88;;;;;;;6.96;94.83;94846.78;5088897;28;20040;-75
2021/12/29 09:13:57;;;;;;;3.25;0.90;;;;;;;7.02;93.39;94848.34;5102650;28;20412;-78
2021/12/29 09:16:22;;;;;;;2.85;1.35;;;;;;;7.13;91.09;94851.75;5105122;28;20124;-77
2021/12/29 09:18:48;;;;;;;8.85;1.50;;;;;;;7.08;92.92;94855.13;5105597;28;20561;-76
2021/12/29 09:21:15;;;;;;;3.92;1.60;;;;;;;7.19;91.29;94850.69;5078737;28;20032;-76
2021/12/29 09:23:42;;;;;;;4.82;1.17;;;;;;;7.26;92.51;94856.44;5103514;28;20040;-77
2021/12/29 09:26:10;;;;;;;4.43;1.30;;;;;;;7.26;92.14;94864.28;5088107;28;20128;-77
2021/12/29 09:28:36;;;;;;;3.75;1.25;;;;;;;7.45;91.45;94865.28;5090463;28;20055;-77
2021/12/29 09:31:02;;;;;;;5.75;1.23;;;;;;;7.42;90.73;94871.06;5103459;28;20452;-76
2021/12/29 09:33:28;;;;;;;5.45;1.30;;;;;;;7.48;89.77;94873.69;5104697;28;20044;-75
2021/12/29 09:35:59;;;;;;;3.35;1.02;;;;;;;7.47;90.52;94867.66;5102176;28;20040;-78
2021/12/29 09:38:25;;;;;;;3.42;1.08;;;;;;;7.58;89.71;94863.19;5089907;28;20044;-78
2021/12/29 09:40:52;;;;;;;7.75;1.67;;;;;;;7.58;90.67;94874.44;5097108;28;20131;-79
2021/12/29 09:43:18;;;;;;;5.22;0.98;;;;;;;7.58;89.25;94868.41;5112305;28;20048;-78
2021/12/29 09:45:45;;;;;;;6.53;1.42;;;;;;;7.68;88.39;94871.00;5107155;28;20485;-79
2021/12/29 09:48:11;;;;;;;3.40;1.63;;;;;;;7.61;90.06;94865.25;5098970;28;20124;-78
2021/12/29 09:50:38;;;;;;;7.93;1.50;;;;;;;7.65;88.23;94868.91;5101137;28;20047;-76
2021/12/29 09:53:05;;;;;;;7.47;1.40;;;;;;;8.17;85.81;94863.50;5101313;28;20064;-78
2021/12/29 09:55:31;;;;;;;5.40;1.27;;;;;;;8.99;82.17;94857.78;5090069;28;20040;-78
2021/12/29 09:57:59;;;;;;;8.35;1.52;;;;;;;9.48;80.63;94859.44;5092303;28;20134;-76
2021/12/29 10:00:41;;;;;;;8.82;1.50;;;;;;;9.63;79.93;94861.13;5098650;28;20040;-77
2021/12/29 10:03:12;;;;;;;3.40;1.15;;;;;;;9.56;82.37;94865.16;5098101;28;20047;-78
2021/12/29 10:05:39;;;;;;;7.53;1.48;;;;;;;9.43;79.39;94863.97;5107751;28;20044;-78
2021/12/29 10:08:07;;;;;;;5.72;1.40;;;;;;;8.90;80.54;94864.69;5108908;27;20053;-77
2021/12/29 10:10:37;;;;;;;7.97;1.27;;;;;;;8.86;83.85;94868.91;5109558;27;20667;-78
2021/12/29 10:13:05;;;;;;;5.47;1.60;;;;;;;9.51;77.96;94858.91;5095586;28;20116;-77
2021/12/29 10:15:39;;;;;;;5.97;1.58;;;;;;;10.66;74.97;94859.13;5092974;28;20048;-78
2021/12/29 10:18:11;;;;;;;7.93;2.00;;;;;;;11.46;71.37;94864.47;5105226;28;20061;-77
2021/12/29 10:20:55;;;;;;;11.60;2.03;;;;;;;11.57;70.86;94874.53;5104334;28;20043;-74
2021/12/29 10:23:30;;;;;;;7.30;1.60;;;;;;;11.78;69.66;94871.53;5091948;28;20051;-76
2021/12/29 10:26:06;;;;;;;7.28;1.50;;;;;;;11.82;70.79;94867.22;5112481;27;20036;-77
2021/12/29 10:28:33;;;;;;;4.55;1.40;;;;;;;11.49;69.07;94875.19;5109971;28;20394;-78
2021/12/29 10:30:58;;;;;;;6.43;1.70;;;;;;;10.91;72.09;94887.69;5102903;28;20040;-77
2021/12/29 10:33:29;;;;;;;12.25;1.55;;;;;;;10.05;74.59;94882.50;5107280;28;20401;-77
2021/12/29 10:35:55;;;;;;;5.20;1.58;;;;;;;10.25;76.36;94885.94;5103892;28;20436;-78
2021/12/29 10:38:24;;;;;;;5.88;1.20;;;;;;;10.18;72.91;94884.44;5110462;28;20047;-77
2021/12/29 10:40:50;;;;;;;5.95;1.60;;;;;;;10.76;71.55;94885.31;5100955;28;20054;-77
2021/12/29 10:43:16;;;;;;;8.75;2.05;;;;;;;10.30;73.67;94893.75;5108373;28;20501;-78
2021/12/29 10:45:44;;;;;;;8.30;1.85;;;;;;;10.97;70.19;94890.25;5106368;28;20040;-77
2021/12/29 10:48:23;;;;;;;6.40;1.55;;;;;;;11.41;68.17;94881.13;5106199;28;20115;-78
2021/12/29 10:50:58;;;;;;;4.85;1.42;;;;;;;11.21;69.00;94880.41;5105071;28;20432;-74
2021/12/29 10:53:24;;;;;;;7.93;1.23;;;;;;;10.96;71.04;94883.41;5108927;28;20470;-77
2021/12/29 10:55:50;;;;;;;9.73;1.50;;;;;;;11.96;68.81;94875.94;5099416;28;20033;-77
2021/12/29 10:58:22;;;;;;;5.38;1.40;;;;;;;12.03;66.84;94877.44;5124718;27;20047;-77
2021/12/29 11:01:04;;;;;;;8.15;1.80;;;;;;;12.35;66.78;94878.38;5103430;27;20052;-77
2021/12/29 11:03:32;;;;;;;7.35;1.25;;;;;;;10.65;69.26;94883.88;5095537;28;20040;-78
2021/12/29 11:06:00;;;;;;;4.70;1.20;;;;;;;10.45;72.41;94888.34;5108534;28;20159;-78
2021/12/29 11:08:32;;;;;;;4.30;1.60;;;;;;;9.87;74.12;94892.69;5101473;28;20505;-77
2021/12/29 11:11:03;;;;;;;6.93;1.70;;;;;;;9.96;73.35;94899.97;5109504;27;20051;-77
2021/12/29 11:13:30;;;;;;;6.38;1.50;;;;;;;9.53;75.01;94898.78;5117012;27;20043;-77
2021/12/29 11:15:58;;;;;;;5.65;1.70;;;;;;;9.54;77.19;94904.84;5109878;28;20559;-79
2021/12/29 11:18:23;;;;;;;11.68;1.85;;;;;;;10.18;75.23;94900.19;5107093;27;20047;-80
2021/12/29 11:20:57;;;;;;;9.15;1.65;;;;;;;11.02;70.31;94914.66;5107702;27;20036;-78
2021/12/29 11:23:23;;;;;;;8.85;1.42;;;;;;;11.06;68.80;94909.59;5101885;28;20047;-78
2021/12/29 11:25:51;;;;;;;10.15;2.00;;;;;;;10.72;70.47;94910.63;5081228;28;20039;-77
2021/12/29 11:28:26;;;;;;;12.35;1.95;;;;;;;10.53;71.12;94906.13;5100052;28;20059;-76
2021/12/29 11:30:53;;;;;;;5.78;1.65;;;;;;;10.47;71.71;94907.25;5109396;27;20043;-77
2021/12/29 11:33:19;;;;;;;7.93;1.52;;;;;;;10.54;72.02;94906.91;5081053;28;20036;-77
2021/12/29 11:35:49;;;;;;;8.35;1.90;;;;;;;10.34;74.71;94905.31;5108580;28;20039;-77
2021/12/29 11:38:17;;;;;;;6.50;1.80;;;;;;;9.80;73.96;94913.25;5101517;28;20114;-76
2021/12/29 11:40:46;;;;;;;11.23;1.55;;;;;;;9.07;78.56;94907.06;5079222;28;20039;-77
2021/12/29 11:43:18;;;;;;;12.25;1.67;;;;;;;9.60;77.75;94908.22;5078838;28;20139;-75
2021/12/29 11:45:48;;;;;;;5.50;1.92;;;;;;;9.80;75.50;94908.00;5117799;27;20099;-75